createdAt,value
2023-05-17T00:00:55.817Z,2.88
2023-05-17T00:03:22.566Z,2.13
2023-05-17T00:05:49.262Z,2.35
2023-05-17T00:08:16.010Z,2.10
2023-05-17T00:10:43.407Z,1.98
2023-05-17T00:13:10.156Z,2.33
2023-05-17T00:15:36.837Z,1.98
2023-05-17T00:18:03.766Z,1.95
2023-05-17T00:20:30.605Z,1.63
2023-05-17T00:22:57.348Z,1.80
2023-05-17T00:25:24.030Z,1.50
2023-05-17T00:27:50.805Z,2.03
2023-05-17T00:30:17.535Z,2.15
2023-05-17T00:32:46.803Z,1.70
2023-05-17T00:37:40.457Z,1.67
2023-05-17T00:40:08.068Z,2.20
2023-05-17T00:42:34.759Z,1.35
2023-05-17T00:45:01.534Z,1.95
2023-05-17T00:47:28.282Z,1.88
2023-05-17T00:49:55.127Z,1.63
2023-05-17T00:52:21.830Z,1.90
2023-05-17T00:54:48.698Z,1.95
2023-05-17T00:57:16.265Z,1.80
2023-05-17T00:59:45.461Z,1.70
2023-05-17T01:02:12.333Z,1.77
2023-05-17T01:04:39.097Z,2.35
2023-05-17T01:07:05.830Z,1.83
2023-05-17T01:09:33.119Z,1.90
2023-05-17T01:12:24.656Z,1.75
2023-05-17T01:15:06.946Z,1.90
2023-05-17T01:18:07.314Z,2.33
2023-05-17T01:20:47.746Z,3.40
2023-05-17T01:23:38.636Z,1.70
2023-05-17T01:26:18.384Z,2.08
2023-05-17T01:28:52.998Z,1.92
2023-05-17T01:31:21.140Z,2.05
2023-05-17T01:33:48.180Z,1.85
2023-05-17T01:36:15.044Z,1.98
2023-05-17T01:38:41.673Z,1.80
2023-05-17T01:41:16.517Z,1.88
2023-05-17T01:43:57.065Z,2.30
2023-05-17T01:46:32.299Z,2.08
2023-05-17T01:49:37.661Z,2.10
2023-05-17T01:52:26.235Z,2.15
2023-05-17T01:55:10.957Z,1.97
2023-05-17T01:57:38.506Z,1.85
2023-05-17T02:00:25.909Z,2.17
2023-05-17T02:02:52.742Z,2.10
2023-05-17T02:05:19.750Z,1.80
2023-05-17T02:07:46.476Z,2.22
2023-05-17T02:10:13.534Z,1.90
2023-05-17T02:12:41.187Z,1.92
2023-05-17T02:15:11.195Z,1.83
2023-05-17T02:17:39.627Z,1.63
2023-05-17T02:20:11.808Z,2.47
2023-05-17T02:22:39.068Z,1.98
2023-05-17T02:25:07.065Z,2.20
2023-05-17T02:27:33.740Z,2.10
2023-05-17T02:30:02.145Z,2.42
2023-05-17T02:32:29.210Z,2.10
2023-05-17T02:34:56.517Z,1.98
2023-05-17T02:37:23.174Z,2.47
2023-05-17T02:39:49.919Z,2.20
2023-05-17T02:42:16.860Z,2.10
2023-05-17T02:44:43.549Z,2.45
2023-05-17T02:47:10.437Z,2.45
2023-05-17T02:49:37.233Z,2.13
2023-05-17T02:52:04.272Z,2.28
2023-05-17T02:54:30.924Z,2.30
2023-05-17T02:56:57.632Z,2.28
2023-05-17T02:59:24.307Z,2.35
2023-05-17T03:01:51.149Z,2.35
2023-05-17T03:04:20.300Z,2.58
2023-05-17T03:06:47.106Z,2.60
2023-05-17T03:09:13.985Z,2.50
2023-05-17T03:11:40.695Z,3.08
2023-05-17T03:14:07.334Z,2.78
2023-05-17T03:16:34.038Z,2.58
2023-05-17T03:19:00.833Z,2.92
2023-05-17T03:21:27.711Z,2.85
2023-05-17T03:23:54.458Z,3.10
2023-05-17T03:26:21.167Z,2.45
2023-05-17T03:28:47.806Z,2.95
2023-05-17T03:31:14.537Z,3.13
2023-05-17T03:33:41.413Z,2.67
2023-05-17T03:36:08.385Z,2.70
2023-05-17T03:38:35.681Z,3.30
2023-05-17T03:41:03.757Z,2.90
2023-05-17T03:43:30.591Z,3.15
2023-05-17T03:45:57.258Z,3.08
2023-05-17T03:48:23.963Z,3.15
2023-05-17T03:50:50.734Z,2.60
2023-05-17T03:53:17.374Z,3.05
2023-05-17T03:55:44.042Z,3.22
2023-05-17T03:58:10.854Z,2.88
2023-05-17T04:00:37.582Z,3.00
2023-05-17T04:03:05.650Z,3.03
2023-05-17T04:05:32.959Z,2.80
2023-05-17T04:07:59.776Z,3.40
2023-05-17T04:10:26.441Z,3.67
2023-05-17T04:12:53.159Z,3.42
2023-05-17T04:15:20.810Z,3.20
2023-05-17T04:17:48.654Z,4.17
2023-05-17T04:20:15.565Z,3.70
2023-05-17T04:22:42.283Z,3.88
2023-05-17T04:25:09.299Z,4.07
2023-05-17T04:27:35.988Z,4.20
2023-05-17T04:30:02.702Z,3.25
2023-05-17T04:32:30.098Z,3.20
2023-05-17T04:34:56.798Z,3.95
2023-05-17T04:37:23.511Z,3.92
2023-05-17T04:39:50.161Z,3.88
2023-05-17T04:42:17.008Z,3.50
2023-05-17T04:44:43.760Z,3.67
2023-05-17T04:47:10.477Z,3.72
2023-05-17T04:49:37.381Z,3.95
2023-05-17T04:52:06.211Z,3.67
2023-05-17T04:54:33.017Z,4.00
2023-05-17T04:56:59.647Z,3.67
2023-05-17T04:59:26.229Z,3.90
2023-05-17T05:01:52.895Z,4.30
2023-05-17T05:04:19.572Z,3.30
2023-05-17T05:06:46.576Z,3.22
2023-05-17T05:09:13.255Z,3.85
2023-05-17T05:11:39.917Z,4.03
2023-05-17T05:14:06.637Z,3.85
2023-05-17T05:16:33.291Z,3.72
2023-05-17T05:19:00.127Z,3.33
2023-05-17T05:21:26.983Z,3.50
2023-05-17T05:23:53.718Z,2.70
2023-05-17T05:26:20.345Z,3.92
2023-05-17T05:28:47.070Z,3.65
2023-05-17T05:31:13.705Z,3.28
2023-05-17T05:33:40.596Z,3.22
2023-05-17T05:36:07.947Z,3.83
2023-05-17T05:38:34.630Z,3.53
2023-05-17T05:41:01.255Z,3.42
2023-05-17T05:43:27.961Z,3.72
2023-05-17T05:45:54.579Z,3.97
2023-05-17T05:48:21.366Z,3.10
2023-05-17T05:50:48.248Z,3.33
2023-05-17T05:53:19.505Z,3.25
2023-05-17T05:55:46.753Z,4.28
2023-05-17T05:58:13.442Z,4.82
2023-05-17T06:00:40.108Z,3.95
2023-05-17T06:03:06.852Z,4.30
2023-05-17T06:05:33.939Z,4.30
2023-05-17T06:08:00.963Z,4.55
2023-05-17T06:10:27.965Z,3.95
2023-05-17T06:12:54.743Z,4.13
2023-05-17T06:15:21.409Z,4.50
2023-05-17T06:17:48.204Z,5.25
2023-05-17T06:20:16.466Z,4.55
2023-05-17T06:22:44.029Z,3.80
2023-05-17T06:25:11.936Z,4.60
2023-05-17T06:27:41.438Z,3.75
2023-05-17T06:32:35.738Z,3.88
2023-05-17T06:35:03.285Z,4.93
2023-05-17T06:37:29.994Z,4.20
2023-05-17T06:40:16.079Z,4.38
2023-05-17T06:42:55.774Z,3.80
2023-05-17T06:45:22.484Z,3.88
2023-05-17T06:47:49.216Z,3.85
2023-05-17T06:50:16.010Z,4.13
2023-05-17T06:52:42.737Z,5.60
2023-05-17T06:55:09.503Z,4.10
2023-05-17T06:57:36.688Z,3.45
2023-05-17T07:00:06.759Z,3.38
2023-05-17T07:02:34.735Z,4.03
2023-05-17T07:05:01.824Z,3.97
2023-05-17T07:07:28.641Z,3.53
2023-05-17T07:09:55.548Z,3.95
2023-05-17T07:12:22.235Z,4.40
2023-05-17T07:14:48.859Z,3.45
2023-05-17T07:17:15.648Z,3.80
2023-05-17T07:19:42.747Z,3.40
2023-05-17T07:22:10.023Z,3.65
2023-05-17T07:24:36.674Z,3.15
2023-05-17T07:27:03.389Z,3.78
2023-05-17T07:29:30.119Z,3.08
2023-05-17T07:31:56.774Z,4.13
2023-05-17T07:34:23.520Z,3.63
2023-05-17T07:36:50.165Z,3.08
2023-05-17T07:39:16.906Z,2.67
2023-05-17T07:41:43.511Z,4.30
2023-05-17T07:44:10.150Z,3.17
2023-05-17T07:46:37.210Z,3.40
2023-05-17T07:49:04.045Z,3.42
2023-05-17T07:51:31.675Z,2.97
2023-05-17T07:53:58.302Z,3.63
2023-05-17T07:56:24.964Z,3.10
2023-05-17T07:58:51.580Z,2.92
2023-05-17T08:01:18.247Z,2.78
2023-05-17T08:03:48.312Z,3.17
2023-05-17T08:06:16.504Z,3.25
2023-05-17T08:08:44.220Z,3.08
2023-05-17T08:11:14.738Z,3.10
2023-05-17T08:13:41.703Z,3.28
2023-05-17T08:16:14.356Z,3.15
2023-05-17T08:18:43.598Z,3.38
2023-05-17T08:21:11.446Z,3.40
2023-05-17T08:23:38.417Z,3.28
2023-05-17T08:26:05.042Z,3.17
2023-05-17T08:28:32.047Z,3.20
2023-05-17T08:30:58.730Z,2.83
2023-05-17T08:33:26.372Z,3.17
2023-05-17T08:35:57.630Z,2.88
2023-05-17T08:38:24.322Z,3.42
2023-05-17T08:40:59.985Z,3.72
2023-05-17T08:43:28.070Z,2.75
2023-05-17T08:45:57.750Z,2.85
2023-05-17T08:48:31.304Z,2.80
2023-05-17T08:50:58.255Z,2.42
2023-05-17T08:53:25.727Z,2.58
2023-05-17T08:55:57.693Z,2.22
2023-05-17T08:58:29.308Z,2.40
2023-05-17T09:00:57.548Z,3.47
2023-05-17T09:03:25.578Z,2.75
2023-05-17T09:05:53.727Z,3.10
2023-05-17T09:08:22.478Z,3.75
2023-05-17T09:10:50.771Z,2.53
2023-05-17T09:13:17.528Z,2.65
2023-05-17T09:15:47.505Z,2.75
2023-05-17T09:18:17.049Z,2.75
2023-05-17T09:20:51.648Z,3.00
2023-05-17T09:23:21.471Z,2.78
2023-05-17T09:25:49.461Z,2.72
2023-05-17T09:28:19.341Z,2.88
2023-05-17T09:30:49.672Z,3.03
2023-05-17T09:33:18.619Z,3.03
2023-05-17T09:35:45.800Z,2.72
2023-05-17T09:38:16.181Z,2.55
2023-05-17T09:40:47.906Z,2.88
2023-05-17T09:43:16.581Z,2.85
2023-05-17T09:45:43.598Z,2.40
2023-05-17T09:48:18.363Z,2.60
2023-05-17T09:50:52.175Z,3.13
2023-05-17T09:53:40.022Z,2.30
2023-05-17T09:56:07.620Z,2.30
2023-05-17T09:58:37.398Z,2.70
2023-05-17T10:01:06.104Z,2.60
2023-05-17T10:03:35.607Z,2.63
2023-05-17T10:06:19.625Z,2.60
2023-05-17T10:08:57.564Z,2.88
2023-05-17T10:11:34.124Z,2.53
2023-05-17T10:14:22.793Z,3.17
2023-05-17T10:16:51.851Z,2.67
2023-05-17T10:19:21.333Z,2.67
2023-05-17T10:21:50.646Z,2.63
2023-05-17T10:24:17.830Z,2.50
2023-05-17T10:26:45.042Z,2.50
2023-05-17T10:29:11.993Z,3.05
2023-05-17T10:31:43.502Z,2.40
2023-05-17T10:34:11.908Z,2.30
2023-05-17T10:36:41.460Z,2.83
2023-05-17T10:41:36.466Z,2.78
2023-05-17T10:44:05.453Z,2.55
2023-05-17T10:46:32.438Z,2.40
2023-05-17T10:49:01.160Z,2.83
2023-05-17T10:51:33.548Z,2.42
2023-05-17T10:54:13.322Z,2.60
2023-05-17T10:56:49.918Z,3.22
2023-05-17T10:59:25.185Z,2.80
2023-05-17T11:01:58.302Z,2.30
2023-05-17T11:04:27.844Z,2.75
2023-05-17T11:07:15.852Z,2.53
2023-05-17T11:09:43.858Z,2.35
2023-05-17T11:12:12.222Z,2.63
2023-05-17T11:14:45.241Z,2.30
2023-05-17T11:17:19.485Z,2.35
2023-05-17T11:19:55.478Z,2.30
2023-05-17T11:22:26.096Z,2.15
2023-05-17T11:24:56.847Z,2.40
2023-05-17T11:27:28.041Z,2.28
2023-05-17T11:29:55.650Z,2.78
2023-05-17T11:32:29.671Z,2.83
2023-05-17T11:34:59.856Z,2.17
2023-05-17T11:37:27.936Z,2.42
2023-05-17T11:40:08.483Z,2.65
2023-05-17T11:42:39.450Z,1.90
2023-05-17T11:45:07.227Z,2.33
2023-05-17T11:47:38.715Z,2.30
2023-05-17T11:50:06.754Z,2.10
2023-05-17T11:52:34.458Z,2.38
2023-05-17T11:55:01.830Z,2.42
2023-05-17T11:57:32.657Z,2.55
2023-05-17T12:00:05.058Z,2.13
2023-05-17T12:02:32.956Z,2.08
2023-05-17T12:05:00.141Z,2.20
2023-05-17T12:07:27.950Z,2.88
2023-05-17T12:09:54.731Z,2.65
2023-05-17T12:12:21.869Z,2.42
2023-05-17T12:14:48.772Z,2.30
2023-05-17T12:17:38.259Z,2.05
2023-05-17T12:20:09.513Z,2.40
2023-05-17T12:22:51.927Z,2.60
2023-05-17T12:25:25.240Z,2.05
2023-05-17T12:27:52.334Z,2.38
2023-05-17T12:30:19.430Z,2.45
2023-05-17T12:32:47.503Z,2.60
2023-05-17T12:35:14.379Z,2.28
2023-05-17T12:37:41.275Z,2.15
2023-05-17T12:40:08.820Z,1.80
2023-05-17T12:42:35.600Z,1.67
2023-05-17T12:45:02.358Z,2.28
2023-05-17T12:47:32.389Z,2.92
2023-05-17T12:50:00.578Z,2.80
2023-05-17T12:52:33.809Z,2.08
2023-05-17T12:55:03.303Z,2.35
2023-05-17T12:57:30.305Z,1.90
2023-05-17T12:59:57.048Z,2.47
2023-05-17T13:02:23.930Z,2.40
2023-05-17T13:04:50.920Z,2.10
2023-05-17T13:07:24.543Z,2.15
2023-05-17T13:09:51.989Z,2.08
2023-05-17T13:12:23.955Z,1.83
2023-05-17T13:14:53.412Z,1.85
2023-05-17T13:17:39.209Z,1.90
2023-05-17T13:20:10.584Z,2.00
2023-05-17T13:22:41.958Z,2.13
2023-05-17T13:25:08.882Z,1.95
2023-05-17T13:27:35.747Z,2.88
2023-05-17T13:30:02.596Z,2.53
2023-05-17T13:32:29.599Z,1.98
2023-05-17T13:34:56.832Z,2.00
2023-05-17T13:37:23.506Z,1.88
2023-05-17T13:39:50.158Z,2.10
2023-05-17T13:42:17.595Z,2.00
2023-05-17T13:44:44.253Z,1.95
2023-05-17T13:47:11.124Z,2.30
2023-05-17T13:49:37.873Z,2.42
2023-05-17T13:52:08.569Z,1.88
2023-05-17T13:54:36.086Z,2.33
2023-05-17T13:57:02.754Z,2.10
2023-05-17T13:59:29.506Z,2.10
2023-05-17T14:01:56.281Z,2.10
2023-05-17T14:04:22.992Z,2.10
2023-05-17T14:06:51.724Z,2.60
2023-05-17T14:09:20.488Z,2.35
2023-05-17T14:11:47.308Z,2.20
2023-05-17T14:14:13.985Z,1.85
2023-05-17T14:16:41.115Z,2.17
2023-05-17T14:19:07.854Z,2.50
2023-05-17T14:21:34.614Z,1.60
2023-05-17T14:24:01.350Z,2.33
2023-05-17T14:26:28.060Z,2.00
2023-05-17T14:28:54.708Z,1.63
2023-05-17T14:31:21.385Z,1.98
2023-05-17T14:33:48.096Z,2.08
2023-05-17T14:36:14.774Z,2.10
2023-05-17T14:38:41.499Z,2.10
2023-05-17T14:41:08.274Z,2.38
2023-05-17T14:43:34.966Z,2.17
2023-05-17T14:46:01.754Z,2.53
2023-05-17T14:48:28.422Z,1.92
2023-05-17T14:50:55.130Z,2.30
2023-05-17T14:53:23.373Z,1.80
2023-05-17T14:55:50.142Z,1.90
2023-05-17T14:58:17.046Z,2.55
2023-05-17T15:00:48.569Z,2.13
2023-05-17T15:03:19.416Z,2.20
2023-05-17T15:05:56.881Z,2.13
2023-05-17T15:08:24.471Z,2.08
2023-05-17T15:10:51.898Z,2.20
2023-05-17T15:13:18.592Z,1.70
2023-05-17T15:15:45.577Z,1.95
2023-05-17T15:18:13.783Z,2.08
2023-05-17T15:20:42.260Z,2.30
2023-05-17T15:23:09.120Z,2.40
2023-05-17T15:25:35.929Z,2.15
2023-05-17T15:28:02.595Z,2.38
2023-05-17T15:30:29.453Z,2.40
2023-05-17T15:32:59.677Z,2.38
2023-05-17T15:35:27.390Z,2.75
2023-05-17T15:37:54.687Z,3.10
2023-05-17T15:40:21.902Z,2.53
2023-05-17T15:42:50.647Z,2.50
2023-05-17T15:45:17.303Z,2.78
2023-05-17T15:47:44.123Z,2.80
2023-05-17T15:50:11.123Z,2.72
2023-05-17T15:52:39.420Z,2.20
2023-05-17T15:55:06.603Z,3.33
2023-05-17T15:57:33.342Z,2.25
2023-05-17T16:00:00.027Z,2.72
2023-05-17T16:02:26.835Z,2.38
2023-05-17T16:04:53.505Z,2.72
2023-05-17T16:07:20.198Z,2.40
2023-05-17T16:09:46.872Z,2.53
2023-05-17T16:12:13.559Z,2.38
2023-05-17T16:14:40.886Z,2.70
2023-05-17T16:17:07.712Z,2.22
2023-05-17T16:19:34.700Z,2.17
2023-05-17T16:22:02.981Z,2.23
2023-05-17T16:24:29.670Z,2.10
2023-05-17T16:26:56.744Z,2.70
2023-05-17T16:29:23.374Z,2.22
2023-05-17T16:31:51.575Z,2.90
2023-05-17T16:34:18.368Z,2.30
2023-05-17T16:36:47.805Z,2.55
2023-05-17T16:41:41.365Z,2.15
2023-05-17T16:44:08.123Z,2.45
2023-05-17T16:46:34.761Z,1.92
2023-05-17T16:49:01.473Z,2.10
2023-05-17T16:51:28.294Z,2.40
2023-05-17T16:53:55.011Z,2.55
2023-05-17T16:56:22.355Z,2.35
2023-05-17T16:58:49.061Z,2.58
2023-05-17T17:01:16.531Z,2.78
2023-05-17T17:03:43.448Z,2.20
2023-05-17T17:06:10.372Z,2.63
2023-05-17T17:08:38.160Z,2.92
2023-05-17T17:11:04.962Z,3.22
2023-05-17T17:13:32.110Z,2.55
2023-05-17T17:15:59.127Z,3.10
2023-05-17T17:18:26.262Z,2.50
2023-05-17T17:20:53.091Z,2.42
2023-05-17T17:23:19.783Z,2.85
2023-05-17T17:25:46.494Z,2.33
2023-05-17T17:28:13.617Z,1.98
2023-05-17T17:30:40.245Z,2.30
2023-05-17T17:33:07.095Z,2.53
2023-05-17T17:35:33.774Z,2.85
2023-05-17T17:38:01.958Z,2.33
2023-05-17T17:40:28.914Z,2.28
2023-05-17T17:42:55.660Z,2.35
2023-05-17T17:45:22.435Z,2.53
2023-05-17T17:47:49.081Z,2.72
2023-05-17T17:50:15.878Z,2.42
2023-05-17T17:52:42.532Z,2.17
2023-05-17T17:55:10.853Z,2.40
2023-05-17T17:57:37.500Z,3.10
2023-05-17T18:00:04.678Z,2.70
2023-05-17T18:02:31.387Z,2.67
2023-05-17T18:04:58.241Z,2.20
2023-05-17T18:07:25.013Z,2.95
2023-05-17T18:09:52.350Z,2.83
2023-05-17T18:12:19.119Z,2.65
2023-05-17T18:14:45.790Z,3.17
2023-05-17T18:17:12.465Z,2.20
2023-05-17T18:19:39.089Z,2.45
2023-05-17T18:22:06.152Z,3.05
2023-05-17T18:24:34.020Z,3.38
2023-05-17T18:27:00.725Z,2.33
2023-05-17T18:29:27.584Z,2.42
2023-05-17T18:31:55.454Z,2.47
2023-05-17T18:34:22.125Z,2.33
2023-05-17T18:36:48.780Z,2.42
2023-05-17T18:39:15.595Z,2.22
2023-05-17T18:41:42.232Z,2.53
2023-05-17T18:44:08.908Z,2.35
2023-05-17T18:46:35.647Z,2.03
2023-05-17T18:49:02.381Z,2.70
2023-05-17T18:51:29.014Z,2.40
2023-05-17T18:53:55.799Z,2.30
2023-05-17T18:56:23.371Z,2.35
2023-05-17T18:58:53.137Z,2.40
2023-05-17T19:01:20.104Z,2.40
2023-05-17T19:03:47.585Z,2.50
2023-05-17T19:06:14.298Z,2.70
2023-05-17T19:08:41.142Z,2.55
2023-05-17T19:11:08.173Z,2.05
2023-05-17T19:13:34.888Z,2.70
2023-05-17T19:16:03.069Z,2.80
2023-05-17T19:18:30.508Z,2.85
2023-05-17T19:20:57.230Z,2.17
2023-05-17T19:23:23.992Z,1.70
2023-05-17T19:25:51.879Z,2.33
2023-05-17T19:28:18.524Z,1.75
2023-05-17T19:30:45.467Z,2.08
2023-05-17T19:33:12.121Z,2.72
2023-05-17T19:35:41.694Z,2.30
2023-05-17T19:38:09.041Z,2.85
2023-05-17T19:40:35.839Z,2.20
2023-05-17T19:43:02.829Z,2.50
2023-05-17T19:45:29.696Z,3.05
2023-05-17T19:47:56.469Z,3.95
2023-05-17T19:50:24.502Z,4.10
2023-05-17T19:52:51.792Z,3.80
2023-05-17T19:55:22.296Z,3.50
2023-05-17T19:57:49.159Z,4.13
2023-05-17T20:00:17.966Z,4.10
2023-05-17T20:02:47.392Z,3.70
2023-05-17T20:07:41.213Z,3.50
2023-05-17T20:10:08.197Z,3.65
2023-05-17T20:12:35.051Z,3.13
2023-05-17T20:15:01.899Z,3.20
2023-05-17T20:17:29.486Z,2.90
2023-05-17T20:19:56.305Z,2.95
2023-05-17T20:22:23.147Z,3.08
2023-05-17T20:24:50.021Z,3.03
2023-05-17T20:27:16.911Z,3.38
2023-05-17T20:29:43.738Z,3.00
2023-05-17T20:32:10.565Z,3.20
2023-05-17T20:34:37.429Z,3.33
2023-05-17T20:37:04.261Z,3.85
2023-05-17T20:39:31.199Z,3.00
2023-05-17T20:41:58.409Z,3.45
2023-05-17T20:44:26.041Z,3.42
2023-05-17T20:46:54.500Z,2.90
2023-05-17T20:49:21.297Z,3.33
2023-05-17T20:51:48.103Z,3.00
2023-05-17T20:54:14.821Z,3.08
2023-05-17T20:56:41.574Z,3.30
2023-05-17T20:59:08.246Z,3.35
2023-05-17T21:01:35.520Z,3.80
2023-05-17T21:04:02.319Z,3.25
2023-05-17T21:06:31.847Z,3.40
2023-05-17T21:09:02.444Z,3.70
2023-05-17T21:11:29.864Z,3.83
2023-05-17T21:13:59.768Z,3.42
2023-05-17T21:16:26.860Z,3.80
2023-05-17T21:18:53.798Z,3.72
2023-05-17T21:21:21.261Z,3.75
2023-05-17T21:23:48.510Z,3.75
2023-05-17T21:26:15.481Z,4.05
2023-05-17T21:28:42.263Z,4.32
2023-05-17T21:31:09.159Z,4.22
2023-05-17T21:33:35.928Z,4.85
2023-05-17T21:36:02.923Z,4.15
2023-05-17T21:38:29.660Z,4.28
2023-05-17T21:40:56.333Z,5.05
2023-05-17T21:43:23.045Z,4.90
2023-05-17T21:45:49.939Z,4.32
2023-05-17T21:48:16.634Z,4.07
2023-05-17T21:50:43.320Z,4.60
2023-05-17T21:53:10.095Z,3.15
2023-05-17T21:55:56.419Z,3.65
2023-05-17T21:58:23.712Z,3.45
2023-05-17T22:00:50.630Z,3.05
2023-05-17T22:03:17.384Z,3.50
2023-05-17T22:05:44.088Z,3.70
2023-05-17T22:08:10.822Z,3.67
2023-05-17T22:10:37.529Z,3.65
2023-05-17T22:13:06.249Z,3.78
2023-05-17T22:15:33.161Z,4.07
2023-05-17T22:17:59.920Z,3.90
2023-05-17T22:20:29.597Z,3.35
2023-05-17T22:22:56.576Z,3.53
2023-05-17T22:25:23.352Z,3.95
2023-05-17T22:27:50.247Z,3.42
2023-05-17T22:30:17.132Z,3.50
2023-05-17T22:32:43.995Z,3.28
2023-05-17T22:35:11.042Z,3.17
2023-05-17T22:37:37.759Z,2.85
2023-05-17T22:40:06.448Z,2.92
2023-05-17T22:42:33.188Z,2.97
2023-05-17T22:44:59.901Z,2.70
2023-05-17T22:47:26.859Z,2.65
2023-05-17T22:49:53.650Z,2.70
2023-05-17T22:52:20.310Z,3.00
2023-05-17T22:54:47.132Z,3.40
2023-05-17T22:57:14.155Z,3.15
2023-05-17T22:59:44.023Z,2.75
2023-05-17T23:02:12.400Z,2.83
2023-05-17T23:04:40.339Z,2.97
2023-05-17T23:07:09.977Z,3.00
2023-05-17T23:09:40.773Z,2.40
2023-05-17T23:12:08.964Z,2.92
2023-05-17T23:14:36.910Z,3.05
2023-05-17T23:17:04.944Z,3.20
2023-05-17T23:19:32.782Z,3.20
2023-05-17T23:22:06.348Z,3.30
2023-05-17T23:24:38.448Z,3.17
2023-05-17T23:27:10.072Z,2.85
2023-05-17T23:29:37.050Z,3.00
2023-05-17T23:32:03.917Z,3.55
2023-05-17T23:34:30.663Z,3.08
2023-05-17T23:36:57.422Z,3.30
2023-05-17T23:39:24.160Z,3.20
2023-05-17T23:41:53.943Z,2.70
2023-05-17T23:44:20.746Z,3.10
2023-05-17T23:46:47.558Z,3.30
2023-05-17T23:49:14.742Z,2.90
2023-05-17T23:51:41.497Z,3.60
2023-05-17T23:54:08.133Z,3.65
2023-05-17T23:56:34.881Z,3.35
2023-05-17T23:59:02.062Z,3.42
